Accueil
METAR-TAF:

METAR-TAF

Aéroports :

Aéroport Jože Pučnik de Ljubljana

Ljubljana, Slovénie

latitude: 46-13N, longitude: 014-29E, altitude: 385 m

Observation

Le bulletin a été fait il y a 29 minutes, à 05:00 UTC
Vent 3 kt de ouest/nord-ouest, variant entre sud/sud-ouest et nord-ouest
Température -5°C
Humidité 93%
Pression 1025 hPa
Visibilité 10 km ou plus
Nuages épars à une hauteur de 3000 ft

METAR: LJLJ 300500Z 30003KT 210V310 9999 SCT030 M05/M06 Q1025 NOSIG

Heure: 06:29 (05:29 UTC)

Prévision

Le bulletin a été fait il y a 6 heures et 29 minutes, à 23:00 UTC
Prévision valable du 30 à 00 UTC au 30 à 24 UTC
Vent 1 kt de direction variable
Visibilité 10 km ou plus
Quelques nuages à une hauteur de 100 ft
Nuages épars à une hauteur de 2500 ft
Temporairement
du 30 à 00 UTC au 30 à 09 UTC
Visibilité: 0300 m
à une hauteur de 100 ft
brouillard givrant

TAF: LJLJ 292300Z 3000/3024 VRB01KT 9999 FEW001 SCT025 TEMPO 3000/3009 0300 FZFG VV001

Observations et prévisions météorologiques de plus de 4000 aéroports (messages METAR et TAF).

Les stations disponibles sont représentées par des disques jaunes et rouges sur la carte.

Passer la souris dessus pour voir le nom de la station.

Cliquer dessus pour voir les observations et prévisions météorologiques.

Pour changer de carte: cliquez sur les boutons verts avec une croix noire pour zoomer, sur le bouton vert avec un tiret pour effectuer un zoom arrière, ou sur les flèches vertes pour les cartes adjacentes.


METAR-TAF: